createdAt,value
2019-01-24T00:01:04.015Z,-2.62
2019-01-24T00:03:33.095Z,-2.56
2019-01-24T00:06:02.188Z,-2.54
2019-01-24T00:08:31.266Z,-2.65
2019-01-24T00:11:00.345Z,-2.62
2019-01-24T00:13:29.436Z,-2.64
2019-01-24T00:18:45.096Z,-2.56
2019-01-24T00:21:23.299Z,-2.52
2019-01-24T00:24:03.378Z,-2.49
2019-01-24T00:26:32.491Z,-2.54
2019-01-24T00:29:01.585Z,-2.41
2019-01-24T00:31:31.588Z,-2.32
2019-01-24T00:34:06.324Z,-2.44
2019-01-24T00:36:50.010Z,-2.54
2019-01-24T00:39:19.186Z,-2.44
2019-01-24T00:41:51.456Z,-2.46
2019-01-24T00:44:20.795Z,-2.41
2019-01-24T00:51:07.931Z,-2.49
2019-01-24T00:53:38.894Z,-2.46
2019-01-24T00:56:11.518Z,-2.54
2019-01-24T01:01:16.315Z,-2.46
2019-01-24T01:04:16.496Z,-2.44
2019-01-24T01:09:23.298Z,-2.59
2019-01-24T01:11:52.375Z,-2.60
2019-01-24T01:14:21.543Z,-2.58
2019-01-24T01:16:50.619Z,-2.66
2019-01-24T01:19:19.690Z,-2.57
2019-01-24T01:21:48.763Z,-2.65
2019-01-24T01:24:17.825Z,-2.55
2019-01-24T01:27:15.300Z,-2.64
2019-01-24T01:29:44.459Z,-2.63
2019-01-24T01:32:16.767Z,-2.61
2019-01-24T01:35:15.465Z,-2.52
2019-01-24T01:40:47.933Z,-2.62
2019-01-24T01:43:17.018Z,-2.52
2019-01-24T01:45:58.901Z,-2.54
2019-01-24T01:48:28.060Z,-2.76
2019-01-24T01:51:16.356Z,-2.57
2019-01-24T01:56:30.043Z,-2.67
2019-01-24T01:59:13.142Z,-2.92
2019-01-24T02:02:06.383Z,-3.16
2019-01-24T02:04:35.465Z,-2.96
2019-01-24T02:09:48.185Z,-2.75
2019-01-24T02:12:17.289Z,-2.83
2019-01-24T02:14:46.347Z,-2.67
2019-01-24T02:17:16.320Z,-2.57
2019-01-24T02:20:00.588Z,-2.98
2019-01-24T02:22:29.644Z,-2.85
2019-01-24T02:24:58.821Z,-2.79
2019-01-24T02:27:28.384Z,-2.91
2019-01-24T02:30:18.753Z,-3.25
2019-01-24T02:32:47.812Z,-3.13
2019-01-24T02:35:16.866Z,-2.87
2019-01-24T02:38:08.595Z,-2.82
2019-01-24T02:40:38.597Z,-3.00
2019-01-24T02:43:07.689Z,-3.15
2019-01-24T02:45:38.720Z,-3.00
2019-01-24T02:48:12.238Z,-2.91
2019-01-24T02:50:41.421Z,-2.85
2019-01-24T02:55:46.241Z,-2.81
2019-01-24T02:58:20.603Z,-2.97
2019-01-24T03:00:49.691Z,-3.03
2019-01-24T03:03:19.763Z,-3.09
2019-01-24T03:05:48.906Z,-3.11
2019-01-24T03:08:18.956Z,-3.20
2019-01-24T03:14:10.463Z,-3.03
2019-01-24T03:16:39.543Z,-3.07
2019-01-24T03:19:08.650Z,-2.93
2019-01-24T03:21:37.723Z,-3.02
2019-01-24T03:24:06.811Z,-2.93
2019-01-24T03:31:49.289Z,-3.05
2019-01-24T03:34:18.373Z,-2.91
2019-01-24T03:36:47.452Z,-3.00
2019-01-24T03:42:02.898Z,-3.05
2019-01-24T03:44:39.123Z,-2.98
2019-01-24T03:47:08.195Z,-3.00
2019-01-24T03:49:49.927Z,-3.06
2019-01-24T03:52:19.042Z,-2.94
2019-01-24T03:54:48.119Z,-2.88
2019-01-24T03:57:17.200Z,-3.20
2019-01-24T04:05:12.268Z,-3.12
2019-01-24T04:07:52.622Z,-3.01
2019-01-24T04:10:21.698Z,-3.17
2019-01-24T04:12:52.746Z,-3.06
2019-01-24T04:15:22.755Z,-3.03
2019-01-24T04:20:27.565Z,-2.78
2019-01-24T04:22:58.551Z,-2.82
2019-01-24T04:25:27.611Z,-3.10
2019-01-24T04:27:59.710Z,-2.92
2019-01-24T04:30:32.340Z,-3.06
2019-01-24T04:33:03.342Z,-2.96
2019-01-24T04:38:08.745Z,-2.82
2019-01-24T04:40:37.819Z,-2.68
2019-01-24T04:43:06.936Z,-2.62
2019-01-24T04:45:49.739Z,-2.89
2019-01-24T04:48:18.808Z,-2.86
2019-01-24T04:53:26.537Z,-3.08
2019-01-24T04:55:55.649Z,-2.94
2019-01-24T04:58:25.625Z,-2.90
2019-01-24T05:00:54.689Z,-2.81
2019-01-24T05:03:34.496Z,-2.91
2019-01-24T05:06:03.576Z,-2.76
2019-01-24T05:08:33.614Z,-2.66
2019-01-24T05:11:02.678Z,-2.84
2019-01-24T05:13:35.722Z,-2.82
2019-01-24T05:16:05.722Z,-2.75
2019-01-24T05:21:12.463Z,-2.98
2019-01-24T05:23:56.863Z,-2.76
2019-01-24T05:26:39.151Z,-2.77
2019-01-24T05:29:08.231Z,-2.87
2019-01-24T05:31:37.296Z,-2.79
2019-01-24T05:34:07.280Z,-2.79
2019-01-24T05:39:14.058Z,-3.05
2019-01-24T05:44:20.002Z,-2.94
2019-01-24T05:46:49.059Z,-2.98
2019-01-24T05:49:18.161Z,-3.08
2019-01-24T05:51:50.246Z,-3.00
2019-01-24T05:54:21.712Z,-2.95
2019-01-24T05:56:52.690Z,-2.98
2019-01-24T05:59:21.743Z,-2.96
2019-01-24T06:04:29.543Z,-2.63
2019-01-24T06:06:58.633Z,-2.69
2019-01-24T06:09:28.489Z,-2.82
2019-01-24T06:12:01.009Z,-2.88
2019-01-24T06:14:35.761Z,-2.60
2019-01-24T06:17:04.812Z,-2.59
2019-01-24T06:19:34.781Z,-2.55
2019-01-24T06:22:04.690Z,-2.41
2019-01-24T06:24:51.436Z,-2.43
2019-01-24T06:27:20.880Z,-2.23
2019-01-24T06:29:51.955Z,-2.15
2019-01-24T06:32:21.103Z,-2.10
2019-01-24T06:35:02.729Z,-1.94
2019-01-24T06:37:31.789Z,-2.05
2019-01-24T06:40:02.872Z,-2.05
2019-01-24T06:42:35.130Z,-2.37
2019-01-24T06:45:04.198Z,-2.24
2019-01-24T06:47:35.219Z,-2.35
2019-01-24T06:50:04.300Z,-2.13
2019-01-24T06:52:33.401Z,-2.04
2019-01-24T06:55:07.869Z,-2.10
2019-01-24T06:57:36.932Z,-2.33
2019-01-24T07:00:06.717Z,-2.34
2019-01-24T07:02:35.771Z,-2.32
2019-01-24T07:05:04.835Z,-2.37
2019-01-24T07:07:33.928Z,-2.37
2019-01-24T07:10:04.879Z,-2.36
2019-01-24T07:12:34.057Z,-2.33
2019-01-24T07:15:16.941Z,-2.25
2019-01-24T07:20:25.153Z,-2.77
2019-01-24T07:22:54.223Z,-2.67
2019-01-24T07:25:25.213Z,-2.67
2019-01-24T07:27:59.350Z,-2.58
2019-01-24T07:34:39.167Z,-2.25
2019-01-24T07:37:08.247Z,-2.69
2019-01-24T07:42:21.556Z,-2.68
2019-01-24T07:50:05.017Z,-2.83
2019-01-24T07:55:13.335Z,-2.77
2019-01-24T08:00:20.971Z,-2.91
2019-01-24T08:02:50.032Z,-2.88
2019-01-24T08:05:19.091Z,-2.91
2019-01-24T08:07:56.118Z,-2.52
2019-01-24T08:13:30.312Z,-2.76
2019-01-24T08:16:01.272Z,-2.70
2019-01-24T08:18:30.331Z,-2.62
2019-01-24T08:20:59.434Z,-2.65
2019-01-24T08:26:07.653Z,-2.33
2019-01-24T08:28:39.950Z,-2.00
2019-01-24T08:34:07.007Z,-2.14
2019-01-24T08:36:36.072Z,-2.25
2019-01-24T08:39:05.166Z,-2.22
2019-01-24T08:41:34.276Z,-2.29
2019-01-24T08:44:03.335Z,-1.98
2019-01-24T08:46:32.392Z,-1.52
2019-01-24T08:49:01.488Z,-1.74
2019-01-24T08:51:30.568Z,-2.00
2019-01-24T08:53:59.638Z,-2.09
2019-01-24T08:56:31.832Z,-1.98
2019-01-24T08:59:01.828Z,-1.81
2019-01-24T09:01:32.802Z,-1.33
2019-01-24T09:04:01.858Z,-1.39
2019-01-24T09:06:30.966Z,-0.96
2019-01-24T09:09:13.278Z,-0.44
2019-01-24T09:16:59.742Z,3.90
2019-01-24T09:19:34.811Z,4.83
2019-01-24T09:22:03.833Z,4.74
2019-01-24T09:24:33.870Z,6.05
2019-01-24T09:27:02.910Z,7.73
2019-01-24T09:29:31.946Z,6.98
2019-01-24T09:32:01.163Z,7.05
2019-01-24T09:34:31.171Z,8.10
2019-01-24T09:37:01.498Z,6.56
2019-01-24T09:39:38.512Z,6.87
2019-01-24T09:42:11.307Z,7.78
2019-01-24T09:44:41.319Z,6.52
2019-01-24T09:54:57.056Z,7.69
2019-01-24T09:57:29.599Z,6.25
2019-01-24T09:59:58.724Z,4.24
2019-01-24T10:02:30.136Z,4.29
2019-01-24T10:04:59.201Z,3.92
2019-01-24T10:07:28.262Z,1.84
2019-01-24T10:09:57.444Z,0.42
2019-01-24T10:12:26.511Z,0.56
2019-01-24T10:14:56.479Z,0.92
2019-01-24T10:17:27.573Z,1.03
2019-01-24T10:19:56.616Z,1.17
2019-01-24T10:22:29.614Z,1.65
2019-01-24T10:24:58.684Z,1.35
2019-01-24T10:27:28.050Z,-0.03
2019-01-24T10:29:57.207Z,0.71
2019-01-24T10:32:26.243Z,0.67
2019-01-24T10:34:55.313Z,0.75
2019-01-24T10:37:32.932Z,1.01
2019-01-24T10:40:02.001Z,1.01
2019-01-24T10:42:31.080Z,4.39
2019-01-24T10:45:07.531Z,5.73
2019-01-24T10:50:12.259Z,8.71
2019-01-24T10:52:41.314Z,10.83
2019-01-24T10:55:20.152Z,14.72
2019-01-24T10:57:49.219Z,13.38
2019-01-24T11:00:34.093Z,14.53
2019-01-24T11:03:03.155Z,15.56
2019-01-24T11:05:44.028Z,16.89
2019-01-24T11:10:49.752Z,18.27
2019-01-24T11:13:21.027Z,18.56
2019-01-24T11:18:36.918Z,14.63
2019-01-24T11:21:05.991Z,10.25
2019-01-24T11:23:35.071Z,12.25
2019-01-24T11:26:04.128Z,6.77
2019-01-24T11:31:08.976Z,7.45
2019-01-24T11:33:48.194Z,9.74
2019-01-24T11:36:17.256Z,14.68
2019-01-24T11:38:46.367Z,12.39
2019-01-24T11:41:15.399Z,15.75
2019-01-24T11:46:20.753Z,15.54
2019-01-24T11:48:51.780Z,12.87
2019-01-24T11:51:21.836Z,9.47
2019-01-24T11:53:53.191Z,10.99
2019-01-24T11:56:24.019Z,9.65
2019-01-24T11:58:53.987Z,7.31
2019-01-24T12:01:23.047Z,13.02
2019-01-24T12:03:52.106Z,15.94
2019-01-24T12:06:25.203Z,12.70
2019-01-24T12:08:54.324Z,15.17
2019-01-24T12:11:23.404Z,13.49
2019-01-24T12:13:52.460Z,11.30
2019-01-24T12:16:21.689Z,11.48
2019-01-24T12:18:50.799Z,12.31
2019-01-24T12:21:19.799Z,13.91
2019-01-24T12:23:49.049Z,12.11
2019-01-24T12:26:18.094Z,12.41
2019-01-24T12:28:48.139Z,9.26
2019-01-24T12:31:18.155Z,6.41
2019-01-24T12:36:31.384Z,5.07
2019-01-24T12:39:00.452Z,5.98
2019-01-24T12:44:08.691Z,5.64
2019-01-24T12:46:37.753Z,6.57
2019-01-24T12:49:06.814Z,4.97
2019-01-24T12:51:39.192Z,3.66
2019-01-24T12:54:09.303Z,3.99
2019-01-24T12:56:38.355Z,4.25
2019-01-24T12:59:10.744Z,4.26
2019-01-24T13:01:43.779Z,4.47
2019-01-24T13:04:17.748Z,4.33
2019-01-24T13:06:46.787Z,3.76
2019-01-24T13:09:20.293Z,4.05
2019-01-24T13:11:49.362Z,3.87
2019-01-24T13:14:30.769Z,3.47
2019-01-24T13:16:59.904Z,2.98
2019-01-24T13:22:04.239Z,2.45
2019-01-24T13:27:09.368Z,3.04
2019-01-24T13:29:46.335Z,2.59
2019-01-24T13:32:15.395Z,2.67
2019-01-24T13:34:48.050Z,2.87
2019-01-24T13:37:17.095Z,2.56
2019-01-24T13:39:46.208Z,3.04
2019-01-24T13:42:15.267Z,3.09
2019-01-24T13:44:44.321Z,2.99
2019-01-24T13:47:14.330Z,2.46
2019-01-24T13:49:43.457Z,2.73
2019-01-24T13:52:13.461Z,2.83
2019-01-24T13:54:43.459Z,3.03
2019-01-24T13:59:48.744Z,2.80
2019-01-24T14:02:19.844Z,2.99
2019-01-24T14:04:48.907Z,2.03
2019-01-24T14:07:17.996Z,1.57
2019-01-24T14:09:49.073Z,2.18
2019-01-24T14:12:19.061Z,2.50
2019-01-24T14:14:48.135Z,2.41
2019-01-24T14:17:17.181Z,2.24
2019-01-24T14:19:47.168Z,2.01
2019-01-24T14:22:16.247Z,2.01
2019-01-24T14:24:45.289Z,1.85
2019-01-24T14:27:15.339Z,1.87
2019-01-24T14:29:43.533Z,1.91
2019-01-24T14:34:48.335Z,1.85
2019-01-24T14:37:17.408Z,2.47
2019-01-24T14:42:29.651Z,3.00
2019-01-24T14:45:06.103Z,3.06
2019-01-24T14:47:48.140Z,2.83
2019-01-24T14:52:55.865Z,2.51
2019-01-24T14:55:30.446Z,2.56
2019-01-24T14:57:59.791Z,1.98
2019-01-24T15:00:38.421Z,1.79
2019-01-24T15:03:07.486Z,1.20
2019-01-24T15:05:43.472Z,1.06
2019-01-24T15:08:12.527Z,0.95
2019-01-24T15:10:41.580Z,0.69
2019-01-24T15:13:10.655Z,0.61
2019-01-24T15:18:15.458Z,0.53
2019-01-24T15:20:44.499Z,0.38
2019-01-24T15:23:14.498Z,-0.13
2019-01-24T15:25:44.560Z,0.01
2019-01-24T15:28:17.042Z,0.10
2019-01-24T15:30:50.902Z,-0.17
2019-01-24T15:33:23.910Z,-0.40
2019-01-24T15:35:53.936Z,-0.63
2019-01-24T15:38:24.924Z,-0.46
2019-01-24T15:40:53.999Z,-0.42
2019-01-24T15:43:23.062Z,-0.54
2019-01-24T15:45:53.258Z,-0.60
2019-01-24T15:48:29.475Z,-0.60
2019-01-24T15:50:59.454Z,-0.73
2019-01-24T15:53:32.448Z,-0.76
2019-01-24T15:56:01.645Z,-0.70
2019-01-24T15:58:30.674Z,-0.73
2019-01-24T16:00:59.723Z,-0.78
2019-01-24T16:03:29.793Z,-0.80
2019-01-24T16:08:38.356Z,-1.08
2019-01-24T16:11:14.633Z,-1.23
2019-01-24T16:16:24.171Z,-1.20
2019-01-24T16:18:53.240Z,-1.26
2019-01-24T16:21:23.222Z,-1.32
2019-01-24T16:23:52.306Z,-1.56
2019-01-24T16:26:21.360Z,-1.65
2019-01-24T16:28:58.355Z,-1.60
2019-01-24T16:31:27.412Z,-1.66
2019-01-24T16:33:57.439Z,-1.69
2019-01-24T16:36:26.487Z,-1.55
2019-01-24T16:41:38.859Z,-1.70
2019-01-24T16:44:08.818Z,-1.52
2019-01-24T16:46:45.155Z,-1.79
2019-01-24T16:49:14.241Z,-1.79
2019-01-24T16:54:20.968Z,-1.89
2019-01-24T16:56:50.966Z,-1.82
2019-01-24T16:59:20.027Z,-1.95
2019-01-24T17:01:49.108Z,-2.12
2019-01-24T17:04:18.160Z,-2.09
2019-01-24T17:06:47.225Z,-2.09
2019-01-24T17:09:16.304Z,-2.11
2019-01-24T17:11:56.699Z,-2.18
2019-01-24T17:14:26.755Z,-2.07
2019-01-24T17:17:03.012Z,-1.95
2019-01-24T17:24:46.724Z,-2.08
2019-01-24T17:27:15.773Z,-2.00
2019-01-24T17:29:46.761Z,-1.95
2019-01-24T17:32:15.839Z,-2.07
2019-01-24T17:35:01.014Z,-2.14
2019-01-24T17:37:30.067Z,-2.22
2019-01-24T17:39:59.132Z,-2.29
2019-01-24T17:42:28.183Z,-2.30
2019-01-24T17:45:04.847Z,-2.30
2019-01-24T17:47:34.883Z,-2.39
2019-01-24T17:50:03.990Z,-2.36
2019-01-24T17:52:33.068Z,-2.29
2019-01-24T17:55:02.190Z,-2.24
2019-01-24T17:57:31.245Z,-2.18
2019-01-24T18:00:00.296Z,-2.22
2019-01-24T18:02:29.363Z,-2.36
2019-01-24T18:05:02.572Z,-2.29
2019-01-24T18:07:31.633Z,-2.25
2019-01-24T18:15:25.902Z,-2.46
2019-01-24T18:17:56.114Z,-2.49
2019-01-24T18:20:25.200Z,-2.45
2019-01-24T18:22:59.545Z,-2.55
2019-01-24T18:25:28.607Z,-2.66
2019-01-24T18:27:58.628Z,-2.71
2019-01-24T18:30:27.951Z,-2.67
2019-01-24T18:32:57.968Z,-2.65
2019-01-24T18:35:50.070Z,-2.66
2019-01-24T18:38:19.156Z,-2.54
2019-01-24T18:40:51.767Z,-2.53
2019-01-24T18:43:20.866Z,-2.49
2019-01-24T18:46:00.300Z,-2.60
2019-01-24T18:51:07.039Z,-2.57
2019-01-24T18:56:18.766Z,-2.73
2019-01-24T19:04:08.107Z,-2.55
2019-01-24T19:06:38.149Z,-2.63
2019-01-24T19:09:07.259Z,-2.73
2019-01-24T19:11:38.279Z,-2.71
2019-01-24T19:14:07.334Z,-2.66
2019-01-24T19:16:48.815Z,-2.57
2019-01-24T19:19:17.934Z,-2.68
2019-01-24T19:24:35.604Z,-2.72
2019-01-24T19:27:06.583Z,-2.71
2019-01-24T19:29:37.564Z,-2.75
2019-01-24T19:32:06.624Z,-2.78
2019-01-24T19:37:11.376Z,-2.70
2019-01-24T19:39:40.438Z,-2.63
2019-01-24T19:42:09.624Z,-2.79
2019-01-24T19:44:54.317Z,-2.82
2019-01-24T19:47:23.386Z,-2.82
2019-01-24T19:55:14.267Z,-2.75
2019-01-24T19:57:43.329Z,-2.94
2019-01-24T20:00:14.966Z,-3.04
2019-01-24T20:02:51.214Z,-3.07
2019-01-24T20:05:20.308Z,-3.02
2019-01-24T20:07:51.286Z,-3.08
2019-01-24T20:10:21.234Z,-3.01
2019-01-24T20:12:50.335Z,-3.03
2019-01-24T20:15:19.417Z,-3.16
2019-01-24T20:17:49.655Z,-3.14
2019-01-24T20:20:18.674Z,-3.21
2019-01-24T20:22:47.831Z,-3.12
2019-01-24T20:25:18.416Z,-3.20
2019-01-24T20:27:52.456Z,-3.34
2019-01-24T20:30:22.344Z,-3.30
2019-01-24T20:35:47.836Z,-3.38
2019-01-24T20:40:57.303Z,-3.51
2019-01-24T20:43:35.317Z,-3.40
2019-01-24T20:48:39.227Z,-3.43
2019-01-24T20:51:12.417Z,-3.46
2019-01-24T20:53:41.771Z,-3.58
2019-01-24T20:56:21.545Z,-3.65
2019-01-24T20:58:54.263Z,-3.72
2019-01-24T21:01:24.351Z,-3.79
2019-01-24T21:06:35.805Z,-3.70
2019-01-24T21:09:22.035Z,-3.51
2019-01-24T21:12:02.211Z,-3.77
2019-01-24T21:14:36.766Z,-3.67
2019-01-24T21:19:45.175Z,-3.72
2019-01-24T21:24:53.561Z,-3.66
2019-01-24T21:27:22.639Z,-3.64
2019-01-24T21:29:51.712Z,-3.61
2019-01-24T21:32:20.813Z,-3.76
2019-01-24T21:34:49.967Z,-3.82
2019-01-24T21:37:19.039Z,-3.89
2019-01-24T21:39:48.175Z,-3.99
2019-01-24T21:42:18.220Z,-3.85
2019-01-24T21:44:47.269Z,-4.01
2019-01-24T21:47:16.380Z,-4.08
2019-01-24T21:49:45.514Z,-3.89
2019-01-24T21:52:28.537Z,-3.86
2019-01-24T21:55:19.440Z,-3.84
2019-01-24T21:57:48.544Z,-3.94
2019-01-24T22:00:19.382Z,-3.89
2019-01-24T22:02:48.625Z,-3.70
2019-01-24T22:05:28.672Z,-3.91
2019-01-24T22:10:52.126Z,-3.71
2019-01-24T22:13:42.314Z,-3.87
2019-01-24T22:16:30.267Z,-3.91
2019-01-24T22:21:34.690Z,-3.86
2019-01-24T22:24:03.957Z,-3.77
2019-01-24T22:26:33.956Z,-3.92
2019-01-24T22:31:39.184Z,-3.84
2019-01-24T22:34:27.066Z,-3.86
2019-01-24T22:39:43.085Z,-3.76
2019-01-24T22:42:22.027Z,-3.98
2019-01-24T22:44:51.108Z,-4.04
2019-01-24T22:49:59.587Z,-3.95
2019-01-24T22:52:28.692Z,-3.94
2019-01-24T22:58:40.820Z,-4.01
2019-01-24T23:01:15.676Z,-4.04
2019-01-24T23:03:44.743Z,-4.13
2019-01-24T23:06:17.322Z,-4.08
2019-01-24T23:08:46.399Z,-3.96
2019-01-24T23:13:57.768Z,-4.01
2019-01-24T23:16:26.924Z,-3.86
2019-01-24T23:18:56.026Z,-3.87
2019-01-24T23:21:26.192Z,-4.05
2019-01-24T23:26:34.392Z,-4.02
2019-01-24T23:31:46.032Z,-4.25
2019-01-24T23:34:15.088Z,-4.26
2019-01-24T23:36:44.154Z,-4.06
2019-01-24T23:39:24.042Z,-4.00
2019-01-24T23:44:34.891Z,-3.99
2019-01-24T23:47:05.345Z,-4.07
2019-01-24T23:49:34.427Z,-4.18
2019-01-24T23:54:42.230Z,-4.04
2019-01-24T23:57:11.287Z,-4.20
2019-01-24T23:59:40.344Z,-3.93
